Flight Track Log - Related Links

Times and Time Zones

All times are in EST time to prevent confusion due to time zone crossing. See the N755CC flight status page for this flight to view local times or setup timezone preferences in your user account.

Time Position Orientation Groundspeed Altitude Reporting Facility
EST Latitude Longitude Course Direction KTS MPH feet Rate Location/Type
Wed 10:17:57 AM 42.8453 -74.2000 139° Southeast 132 152 5,300  Level Boston Center
Wed 10:18:57 AM 42.8172 -74.1669 139° Southeast 134 154 5,500 152 Climbing Boston Center
Wed 10:19:16 AM 42.8086 -74.1544 133° Southeast 138 159 5,500  Level Boston Center
Wed 10:20:00 AM 42.7875 -74.1303 140° Southeast 146 168 5,500  Level Boston Center
Wed 10:20:18 AM 42.7778 -74.1189 139° Southeast 146 168 5,500  Level Boston Center
Wed 10:21:12 AM 42.7481 -74.0878 142° Southeast 147 169 5,500  Level Boston Center
Wed 10:21:18 AM 42.7467 -74.0831 112° Southeast 147 169 5,500  Level Boston Center
Wed 10:22:13 AM 42.7183 -74.0514 141° Southeast 149 171 5,500  Level Boston Center
Wed 10:22:19 AM 42.7161 -74.0458 119° Southeast 148 170 5,500  Level Boston Center
Wed 10:23:18 AM 42.6831 -74.0067 139° Southeast 147 169 5,500  Level Boston Center
Wed 10:23:21 AM 42.6814 -74.0067 180° South 148 170 5,500  Level Boston Center
Wed 10:24:18 AM 42.6525 -73.9697 137° Southeast 147 169 5,500  Level Boston Center
Wed 10:24:28 AM 42.6475 -73.9689 173° South 148 170 5,500  Level Boston Center
Wed 10:25:28 AM 42.6178 -73.9325 138° Southeast 148 170 5,500  Level Boston Center
Wed 10:26:28 AM 42.5825 -73.8917 140° Southeast 154 177 5,500  Level Boston Center
Wed 10:27:22 AM 42.5569 -73.8614 139° Southeast 151 174 5,500  Level Boston Center
Wed 10:27:28 AM 42.5500 -73.8572 156° South 150 173 5,500  Level Boston Center
Wed 10:28:29 AM 42.5197 -73.8239 141° Southeast 146 168 5,500  Level Boston Center
Wed 10:29:24 AM 42.4917 -73.7889 137° Southeast 146 168 5,500  Level Boston Center
Wed 10:29:30 AM 42.4878 -73.7869 160° South 147 169 5,500  Level Boston Center
Wed 10:30:24 AM 42.4600 -73.7539 139° Southeast 147 169 5,500  Level Boston Center
Wed 10:30:30 AM 42.4556 -73.7531 172° South 148 170 5,500  Level Boston Center
Wed 10:31:25 AM 42.4253 -73.7194 141° Southeast 149 171 5,500  Level Boston Center
Wed 10:32:25 AM 42.3964 -73.6825 137° Southeast 148 170 5,500  Level Boston Center
Wed 10:33:25 AM 42.3647 -73.6475 141° Southeast 148 170 5,500  Level Boston Center
Wed 10:34:27 AM 42.3308 -73.6128 143° Southeast 149 171 5,500  Level Boston Center
Wed 10:35:28 AM 42.3000 -73.5764 139° Southeast 149 171 5,500  Level Boston Center
Wed 10:36:22 AM 42.2706 -73.5436 141° Southeast 149 171 5,500  Level Boston Center
Wed 10:36:28 AM 42.2694 -73.5392 109° East 149 171 5,500  Level Boston Center
Wed 10:37:23 AM 42.2347 -73.5058 145° Southeast 149 171 5,500  Level Boston Center
Wed 10:37:29 AM 42.2367 -73.5047 23° Northeast 151 174 5,500  Level Boston Center
Wed 10:38:24 AM 42.2028 -73.4692 142° Southeast 152 175 5,500  Level Boston Center
Wed 10:38:30 AM 42.2047 -73.4683 18° North 151 174 5,500  Level Boston Center
Wed 10:39:28 AM 42.1739 -73.4331 140° Southeast 148 170 5,500 -82 Level Boston Center
Wed 10:39:43 AM 42.1642 -73.4228 142° Southeast 149 171 5,400 -118 Descending Boston Center
Wed 10:40:19 AM 42.1433 -73.3978 138° Southeast 149 171 5,400 125 Level Boston Center
Wed 10:40:31 AM 42.1425 -73.3975 166° South 149 171 5,500  Climbing Boston Center
Wed 10:41:13 AM 42.1150 -73.3669 140° Southeast 147 169 5,400  Descending Boston Center
Wed 10:41:29 AM 42.1119 -73.3622 131° Southeast 146 168 5,500  Climbing Boston Center
Wed 10:42:12 AM 42.0858 -73.3300 138° Southeast 147 169 5,400 -98 Descending Boston Center
Wed 10:42:30 AM 42.0772 -73.3178 134° Southeast 151 174 5,400  Level Boston Center
Wed 10:43:15 AM 42.0522 -73.2942 145° Southeast 148 170 5,400  Level Boston Center
Wed 10:43:30 AM 42.0447 -73.2842 135° Southeast 148 170 5,400 -197 Level Boston Center
Wed 10:44:16 AM 42.0200 -73.2619 146° Southeast 152 175 5,200 -375 Descending Boston Center
Wed 10:44:34 AM 42.0103 -73.2497 137° Southeast 155 178 5,000 -500 Descending Boston Center
Wed 10:45:16 AM 41.9842 -73.2256 145° Southeast 161 185 4,700 -400 Descending Boston Center
Wed 10:45:34 AM 41.9739 -73.2125 137° Southeast 162 186 4,600 -492 Descending Boston Center
Wed 10:46:17 AM 41.9489 -73.1867 142° Southeast 164 189 4,200 -492 Descending Boston Center
Wed 10:46:35 AM 41.9381 -73.1767 146° Southeast 161 185 4,100 -500 Descending Boston Center
Wed 10:47:17 AM 41.9064 -73.1508 149° Southeast 164 189 3,700 -590 Descending Boston Center
Wed 10:47:36 AM 41.8978 -73.1403 138° Southeast 162 186 3,500 -358 Descending Boston Center
Wed 10:48:24 AM 41.8681 -73.1167 149° Southeast 154 177 3,300 -300 Descending Boston Center
Wed 10:48:36 AM 41.8631 -73.1092 132° Southeast 151 174 3,200 -98 Descending Boston Center
Wed 10:49:25 AM 41.8383 -73.0825 141° Southeast 137 158 3,200  Level Boston Center
Wed 10:49:37 AM 41.8333 -73.0758 135° Southeast 140 161 3,200  Level Boston Center
Wed 10:50:17 AM 41.8114 -73.0553 145° Southeast 131 151 3,200 103 Level Boston Center
Wed 10:50:35 AM 41.8056 -73.0447 127° Southeast 132 152 3,300 98 Climbing Boston Center
Wed 10:51:18 AM 41.7861 -73.0203 137° Southeast 132 152 3,300 -95 Level Boston Center
Wed 10:51:38 AM 41.7794 -73.0089 128° Southeast 135 155 3,200 -381 Descending Boston Center
Wed 10:52:21 AM 41.7589 -72.9844 138° Southeast 135 155 2,900 -393 Descending Boston Center
Wed 10:52:39 AM 41.7542 -72.9731 119° Southeast 133 153 2,800 -308 Descending Boston Center
Wed 10:53:39 AM 41.7381 -72.9456 128° Southeast 125 144 2,500 -300 Descending Boston Center

Login

Don't have an account? Register now (free) for customized features, flight alerts, and more!